Chaska, MN (55318)

3:32 AM CDT on July 31, 2016 (GMT -0500)
Jonathan 7 | | Change Station

Elev 912 ft 44.82 °N, 93.62 °W | Updated 2 minutes ago

Scattered Clouds
Scattered Clouds
62.2 °F
Feels Like 62.2 °F
N
0.0
Wind Variable Wind from WSW
Gusts 0.0 mph

Today
High -- | Low -- °F
--% Chance of Precip.
Yesterday
High -- | Low -- °F
Precip. -- in
Pressure 29.97 in
Visibility 10.0 miles
Clouds Scattered Clouds 9000 ft
Dew Point 60 °F
Humidity 93%
Rainfall 0.00 in
Snow Depth Not available.
5:59 AM 8:41 PM
Waning Crescent, 8% visible
METAR KFCM 310753Z AUTO 13004KT 10SM SCT090 21/17 A2998 RMK AO2 SLP148 T02060172
Pressure 29.97 in
Visibility 10.0 miles
Clouds Scattered Clouds 9000 ft
Dew Point 60 °F
Humidity 93%
Rainfall 0.00 in
Snow Depth Not available.
5:59 AM 8:41 PM
Waning Crescent, 8% visible
METAR KFCM 310753Z AUTO 13004KT 10SM SCT090 21/17 A2998 RMK AO2 SLP148 T02060172

10-Day Weather Forecast

Almanac

Astronomy

Jul. 31, 2016 Rise Set
Actual Time
Civil Twilight
Nautical Twilight
Astronomical Twilight
Moon
Length of Visible Light
Length of Day
Tomorrow will be .
, % of the Moon is Illuminated

Today's Extremes

State Highs State Lows

Community

WunderPhotos

Upload Photos

1,928,768 photos uploaded!

WunderBlog® & News

Nearby

Air Quality

  Air Quality AQ Index Pollutant
Not available.

Snow Depth

Station Depth Elevation

Earthquake Activity

City Distance Mag. Time & Date
Minimum magnitude displayed is 2.5.

Coastal Water Temperatures

Place Temperature

Stations

Nearby Weather Stations

Station Location Temp. Windchill Dew Point Humidity Wind Precip. Elev Updated Type
                   

Watches & Warnings

There are currently no watches in effect.